Time;durP1;ratioP1;P1;durP2;ratioP2;P2;SDS_P1;SDS_P2;PMS_P1;PMS_P2;Temp;Humidity;BMP_temperature;BMP_pressure;BME280_temperature;BME280_humidity;BME280_pressure;Samples;Min_cycle;Max_cycle;Signal;HPM_P1;HPM_P2
2024/01/16 00:01:01;;;;;;;;;18.20;16.20;;;;;1.24;64.03;98402.84;5009630;28;9690;-77
2024/01/16 00:03:46;;;;;;;;;16.20;13.80;;;;;1.50;63.29;98400.16;5028777;28;8866;-76
2024/01/16 00:06:17;;;;;;;;;21.20;19.20;;;;;1.71;63.10;98400.97;5031268;28;8885;-77
2024/01/16 00:08:46;;;;;;;;;21.80;19.80;;;;;1.93;61.90;98384.47;5023858;28;8944;-76
2024/01/16 00:11:15;;;;;;;;;20.40;20.40;;;;;2.00;61.42;98383.59;5014655;28;9619;-80
2024/01/16 00:13:44;;;;;;;;;32.20;27.20;;;;;2.15;60.87;98380.06;5010902;28;8896;-78
2024/01/16 00:16:13;;;;;;;;;25.40;21.20;;;;;2.26;60.87;98382.59;5010637;28;8873;-78
2024/01/16 00:18:42;;;;;;;;;25.00;24.20;;;;;2.31;60.41;98392.91;5008763;28;8878;-75
2024/01/16 00:21:11;;;;;;;;;34.20;30.40;;;;;2.36;60.04;98393.75;5012233;28;8896;-76
2024/01/16 00:23:41;;;;;;;;;29.20;29.20;;;;;2.39;59.62;98402.38;5034527;28;8867;-76
2024/01/16 00:26:20;;;;;;;;;25.80;24.00;;;;;2.45;60.14;98408.38;5028999;28;8960;-78
2024/01/16 00:28:49;;;;;;;;;26.40;25.60;;;;;2.39;60.09;98406.69;5045041;28;8884;-77
2024/01/16 00:31:20;;;;;;;;;29.00;24.20;;;;;2.37;59.62;98419.69;5014026;28;8868;-78
2024/01/16 00:33:49;;;;;;;;;31.60;28.40;;;;;2.42;59.87;98420.50;5040782;28;8894;-78
2024/01/16 00:36:18;;;;;;;;;23.80;21.60;;;;;2.33;60.34;98402.41;5044338;28;8933;-78
2024/01/16 00:38:49;;;;;;;;;32.20;27.20;;;;;2.43;59.81;98403.22;5030162;28;8844;-76
2024/01/16 00:41:18;;;;;;;;;39.20;28.40;;;;;2.47;59.86;98414.44;5028878;28;8871;-76
2024/01/16 00:43:47;;;;;;;;;33.40;29.20;;;;;2.27;59.51;98433.56;5030755;28;8856;-76
2024/01/16 00:46:16;;;;;;;;;30.80;30.80;;;;;2.34;59.67;98444.78;5028763;28;8933;-76
2024/01/16 00:48:45;;;;;;;;;28.20;27.20;;;;;2.28;60.04;98442.19;4994016;28;8901;-76
2024/01/16 00:51:15;;;;;;;;;30.20;25.00;;;;;2.31;59.23;98450.81;5044638;28;8852;-77
2024/01/16 00:53:44;;;;;;;;;27.20;25.00;;;;;2.35;60.01;98462.03;5026405;28;8864;-76
2024/01/16 00:56:15;;;;;;;;;28.40;24.40;;;;;2.40;59.95;98471.53;4992593;28;8878;-76
2024/01/16 00:58:44;;;;;;;;;34.00;32.80;;;;;2.21;60.09;98481.13;5026044;28;8856;-77
2024/01/16 01:01:13;;;;;;;;;32.00;30.20;;;;;2.31;59.92;98466.38;5041103;28;8852;-78
2024/01/16 01:03:42;;;;;;;;;33.80;29.80;;;;;2.32;59.46;98451.72;5048168;28;8845;-76
2024/01/16 01:06:11;;;;;;;;;32.40;28.40;;;;;2.20;60.42;98457.78;5047509;28;9650;-76
2024/01/16 01:08:40;;;;;;;;;33.60;27.60;;;;;2.25;60.08;98462.97;5048555;28;8845;-76
2024/01/16 01:11:09;;;;;;;;;29.20;25.40;;;;;2.22;60.03;98463.81;5042482;28;8863;-75
2024/01/16 01:13:39;;;;;;;;;33.40;28.60;;;;;2.21;59.58;98475.94;5029005;28;8867;-76
2024/01/16 01:16:09;;;;;;;;;25.80;24.00;;;;;2.18;59.92;98475.97;5049077;28;8883;-75
2024/01/16 01:18:38;;;;;;;;;21.80;19.40;;;;;1.76;60.85;98470.03;5049822;28;8860;-79
2024/01/16 01:21:07;;;;;;;;;20.40;20.20;;;;;1.79;61.21;98466.59;5030433;28;8935;-77
2024/01/16 01:23:36;;;;;;;;;25.00;22.20;;;;;1.59;61.54;98467.50;5050646;28;9642;-77
2024/01/16 01:26:05;;;;;;;;;20.80;19.20;;;;;1.74;61.17;98469.19;5046909;28;8828;-79
2024/01/16 01:28:34;;;;;;;;;22.40;21.60;;;;;1.78;61.04;98488.19;5043814;28;8857;-76
2024/01/16 01:31:05;;;;;;;;;24.00;22.00;;;;;1.88;61.57;98489.00;5034763;28;8962;-77
2024/01/16 01:33:34;;;;;;;;;30.00;23.00;;;;;1.91;60.29;98489.88;5051490;28;8852;-76
2024/01/16 01:36:04;;;;;;;;;29.20;23.40;;;;;1.56;61.68;98513.25;5035397;28;8864;-76
2024/01/16 01:38:33;;;;;;;;;27.20;24.00;;;;;1.75;61.68;98514.13;5052370;28;8853;-76
2024/01/16 01:41:02;;;;;;;;;22.20;22.20;;;;;1.46;61.93;98509.81;5058152;28;8921;-76
2024/01/16 01:43:34;;;;;;;;;23.20;23.20;;;;;0.99;63.45;98501.22;5069472;28;8991;-76
2024/01/16 01:46:23;;;;;;;;;26.00;25.80;;;;;1.22;63.09;98506.38;5050801;28;8878;-76
2024/01/16 01:48:52;;;;;;;;;24.20;24.20;;;;;1.34;62.50;98504.66;5032510;28;9645;-77
2024/01/16 01:51:22;;;;;;;;;22.80;20.00;;;;;0.86;63.84;98513.22;5031887;28;8893;-76
2024/01/16 01:53:52;;;;;;;;;19.20;14.20;;;;;1.13;63.25;98514.16;5014333;28;8874;-78
2024/01/16 01:56:22;;;;;;;;;23.40;21.80;;;;;1.30;62.72;98519.34;5030256;28;8839;-77
2024/01/16 01:58:55;;;;;;;;;24.80;23.60;;;;;1.39;63.01;98521.91;5013265;28;8919;-78
2024/01/16 02:01:29;;;;;;;;;32.00;26.80;;;;;1.33;62.77;98505.50;5029438;28;8876;-78
2024/01/16 02:04:00;;;;;;;;;29.20;27.00;;;;;1.23;62.88;98502.06;5029518;28;8891;-78
2024/01/16 02:06:29;;;;;;;;;30.60;27.60;;;;;0.84;64.81;98507.19;5029408;28;8833;-77
2024/01/16 02:08:59;;;;;;;;;29.60;26.40;;;;;0.86;64.35;98517.53;5012988;28;8885;-77
2024/01/16 02:11:28;;;;;;;;;34.40;31.40;;;;;0.83;64.42;98535.63;5013130;28;8860;-77
2024/01/16 02:13:57;;;;;;;;;42.80;34.80;;;;;0.99;64.00;98545.19;5029378;28;9666;-77
2024/01/16 02:16:38;;;;;;;;;35.00;32.75;;;;;1.31;63.39;98556.44;5013117;28;8999;-76
2024/01/16 02:19:07;;;;;;;;;46.00;38.40;;;;;1.29;63.56;98552.97;5011721;28;8902;-76
2024/01/16 02:21:40;;;;;;;;;31.80;27.80;;;;;1.44;62.85;98547.81;5032860;28;8910;-76
2024/01/16 02:24:12;;;;;;;;;36.80;32.20;;;;;1.31;63.25;98566.78;5049531;28;8882;-77
2024/01/16 02:26:42;;;;;;;;;33.20;30.00;;;;;1.33;63.37;98571.13;5046244;28;8975;-79
2024/01/16 02:29:11;;;;;;;;;36.00;31.60;;;;;1.37;63.15;98564.19;5083382;28;8868;-77
2024/01/16 02:31:40;;;;;;;;;28.00;24.60;;;;;1.42;63.15;98589.22;5070060;28;8948;-78
2024/01/16 02:34:09;;;;;;;;;30.00;25.80;;;;;1.13;63.56;98594.38;5068834;28;8864;-77
2024/01/16 02:36:38;;;;;;;;;34.80;30.80;;;;;1.20;64.03;98597.81;5064930;28;9044;-76
2024/01/16 02:39:07;;;;;;;;;23.00;22.60;;;;;1.19;64.10;98584.03;5031972;28;8862;-77
2024/01/16 02:41:38;;;;;;;;;22.60;19.60;;;;;0.78;64.47;98587.34;5015190;28;9576;-79
2024/01/16 02:44:07;;;;;;;;;20.00;18.80;;;;;0.49;65.70;98607.09;5066053;28;9625;-76
2024/01/16 02:46:38;;;;;;;;;20.00;20.00;;;;;0.78;65.51;98610.63;5069524;28;8868;-79
2024/01/16 02:49:07;;;;;;;;;26.60;21.80;;;;;0.83;65.13;98598.59;5068623;28;8860;-78
2024/01/16 02:51:36;;;;;;;;;22.20;19.20;;;;;0.94;64.81;98592.59;5068422;28;8860;-78
2024/01/16 02:54:07;;;;;;;;;22.60;18.60;;;;;0.71;65.74;98583.03;5068472;28;8855;-77
2024/01/16 02:56:39;;;;;;;;;23.20;20.00;;;;;0.88;65.26;98566.69;5012112;28;9006;-77
2024/01/16 02:59:08;;;;;;;;;24.80;23.20;;;;;0.92;65.29;98582.22;4992185;28;8839;-77
2024/01/16 03:01:37;;;;;;;;;24.60;22.20;;;;;0.55;65.74;98601.94;5012090;28;8864;-77
2024/01/16 03:04:06;;;;;;;;;21.00;18.80;;;;;0.60;65.95;98621.78;4979340;28;8913;-78
2024/01/16 03:06:35;;;;;;;;;23.20;20.60;;;;;0.79;65.56;98625.31;5016303;28;8851;-77
2024/01/16 03:09:04;;;;;;;;;18.60;16.80;;;;;0.89;64.91;98628.78;5029662;28;8879;-77
2024/01/16 03:11:34;;;;;;;;;20.40;19.00;;;;;0.82;65.08;98627.91;4995698;28;8914;-78
2024/01/16 03:14:04;;;;;;;;;17.00;15.60;;;;;0.88;64.97;98637.44;5006721;28;8858;-76
2024/01/16 03:16:33;;;;;;;;;17.60;17.60;;;;;0.92;64.43;98648.66;4975884;28;8854;-76
2024/01/16 03:19:02;;;;;;;;;24.80;19.60;;;;;0.99;64.29;98651.28;5007944;28;8869;-76
2024/01/16 03:21:31;;;;;;;;;20.20;17.80;;;;;1.03;64.30;98657.31;5007890;28;8948;-77
2024/01/16 03:24:00;;;;;;;;;24.60;23.00;;;;;0.63;65.49;98672.66;5007245;28;8928;-78
2024/01/16 03:26:29;;;;;;;;;27.40;22.40;;;;;0.71;64.82;98663.22;4991781;28;8858;-78
2024/01/16 03:28:58;;;;;;;;;16.80;12.80;;;;;1.05;64.58;98658.22;5064787;28;8894;-75
2024/01/16 03:31:29;;;;;;;;;23.80;21.60;;;;;1.06;63.84;98667.69;5050775;28;8845;-76
2024/01/16 03:33:58;;;;;;;;;27.00;19.60;;;;;0.96;64.67;98665.94;5049244;28;8880;-75
2024/01/16 03:36:27;;;;;;;;;21.80;20.80;;;;;1.20;64.13;98663.44;5050734;28;8845;-77
2024/01/16 03:38:56;;;;;;;;;23.60;19.80;;;;;1.39;63.48;98666.03;5048675;28;8882;-76
2024/01/16 03:41:25;;;;;;;;;22.40;17.60;;;;;1.44;62.88;98649.66;5042474;28;9542;-76
2024/01/16 03:43:56;;;;;;;;;21.20;20.00;;;;;1.50;62.98;98655.72;5030993;28;8871;-77
2024/01/16 03:46:25;;;;;;;;;22.40;22.00;;;;;1.44;63.44;98666.91;5029955;28;8843;-76
2024/01/16 03:48:55;;;;;;;;;21.00;17.20;;;;;1.55;62.86;98678.16;5013412;28;8968;-75
2024/01/16 03:51:25;;;;;;;;;27.00;24.00;;;;;1.11;63.25;98683.25;5030465;28;8852;-76
2024/01/16 03:53:53;;;;;;;;;24.60;21.60;;;;;1.17;63.26;98681.53;5028760;28;8909;-76
2024/01/16 03:56:23;;;;;;;;;22.40;17.20;;;;;1.35;63.59;98683.31;5030307;28;8847;-78
2024/01/16 03:58:52;;;;;;;;;19.80;19.40;;;;;1.45;62.89;98689.38;5062872;28;8867;-75
2024/01/16 04:01:31;;;;;;;;;10.60;10.60;;;;;1.71;62.79;98697.19;5063144;28;8886;-79
2024/01/16 04:04:01;;;;;;;;;20.00;15.80;;;;;1.71;62.00;98704.97;5051022;28;8861;-80
2024/01/16 04:06:32;;;;;;;;;16.00;15.20;;;;;1.68;61.89;98707.56;5028298;28;8843;-78
2024/01/16 04:09:01;;;;;;;;;12.80;12.80;;;;;1.71;61.71;98698.91;5045672;28;8852;-76
2024/01/16 04:11:30;;;;;;;;;13.80;13.40;;;;;1.66;62.24;98718.78;5030457;28;8859;-76
2024/01/16 04:13:59;;;;;;;;;19.00;16.80;;;;;1.51;61.81;98717.03;5028140;28;9657;-77
2024/01/16 04:16:28;;;;;;;;;16.60;13.00;;;;;1.62;62.06;98712.72;5042363;28;8875;-76
2024/01/16 04:18:57;;;;;;;;;18.60;16.00;;;;;1.62;61.35;98742.06;5031171;28;8879;-76
2024/01/16 04:21:28;;;;;;;;;12.60;11.00;;;;;1.78;61.38;98742.97;5030306;28;9594;-74
2024/01/16 04:23:57;;;;;;;;;16.80;14.80;;;;;1.85;61.62;98748.19;5051015;28;8844;-77
2024/01/16 04:26:26;;;;;;;;;19.60;16.00;;;;;1.80;61.16;98750.75;5044526;28;8863;-76
2024/01/16 04:28:55;;;;;;;;;17.20;16.60;;;;;1.74;61.72;98769.72;5066677;28;8906;-81
2024/01/16 04:31:24;;;;;;;;;12.20;10.80;;;;;1.79;61.12;98773.22;5040375;28;8864;-77
2024/01/16 04:33:53;;;;;;;;;18.00;16.80;;;;;1.87;61.22;98773.22;5046615;28;8882;-77
2024/01/16 04:36:22;;;;;;;;;10.60;9.00;;;;;1.95;61.16;98778.41;5046554;28;8932;-77
2024/01/16 04:38:53;;;;;;;;;17.80;14.60;;;;;1.96;60.77;98774.97;5046533;28;8998;-78
2024/01/16 04:41:22;;;;;;;;;12.40;11.40;;;;;1.82;60.52;98774.94;5030140;28;8881;-77
2024/01/16 04:43:51;;;;;;;;;9.00;8.60;;;;;1.92;60.73;98770.63;5046427;28;8944;-76
2024/01/16 04:46:20;;;;;;;;;12.40;12.00;;;;;1.56;61.35;98786.09;5022434;28;9647;-77
2024/01/16 04:48:50;;;;;;;;;46.25;43.25;;;;;1.78;61.13;98789.59;5034124;28;8971;-77
2024/01/16 04:51:19;;;;;;;;;57.50;48.75;;;;;1.81;60.67;98783.59;5013690;28;8865;-78
2024/01/16 04:53:48;;;;;;;;;58.25;49.50;;;;;1.87;60.67;98783.59;4997696;28;8854;-76
2024/01/16 04:56:19;;;;;;;;;30.40;28.80;;;;;1.94;60.09;98800.03;5045783;28;9011;-76
2024/01/16 04:58:48;;;;;;;;;23.80;20.40;;;;;1.97;60.38;98793.09;5045672;28;8955;-77
2024/01/16 05:01:18;;;;;;;;;17.60;15.00;;;;;2.02;59.90;98786.19;5027059;28;8850;-76
2024/01/16 05:03:47;;;;;;;;;18.80;18.00;;;;;1.91;60.67;98792.22;5029493;28;8886;-78
2024/01/16 05:06:16;;;;;;;;;15.60;13.80;;;;;1.62;60.66;98793.03;5046770;28;8955;-77
2024/01/16 05:08:45;;;;;;;;;12.00;9.80;;;;;1.79;60.66;98795.66;5030971;28;8845;-79
2024/01/16 05:11:14;;;;;;;;;8.20;8.20;;;;;1.92;60.15;98810.38;5058844;28;8864;-77
2024/01/16 05:13:45;;;;;;;;;13.60;11.40;;;;;1.93;59.88;98809.50;5063035;28;8857;-77
2024/01/16 05:16:14;;;;;;;;;26.80;23.80;;;;;1.93;59.84;98821.59;5047371;28;8849;-75
2024/01/16 05:18:44;;;;;;;;;15.80;14.80;;;;;1.85;59.77;98821.59;5045741;28;8879;-78
2024/01/16 05:21:13;;;;;;;;;41.20;35.60;;;;;1.98;60.09;98825.09;5047268;28;8853;-76
2024/01/16 05:23:43;;;;;;;;;10.60;10.60;;;;;1.29;61.74;98848.97;5058581;28;9014;-76
2024/01/16 05:26:12;;;;;;;;;25.00;20.00;;;;;1.60;60.98;98843.97;5083942;28;8840;-76
2024/01/16 05:28:41;;;;;;;;;18.60;16.00;;;;;1.68;60.63;98828.47;5079393;28;8980;-76
2024/01/16 05:31:12;;;;;;;;;16.00;13.60;;;;;1.62;61.13;98835.34;5015353;28;8969;-74
2024/01/16 05:33:42;;;;;;;;;15.60;15.60;;;;;1.50;60.93;98834.41;5048959;28;8955;-76
2024/01/16 05:36:11;;;;;;;;;16.40;14.80;;;;;1.68;60.95;98844.00;5001810;28;8854;-76
2024/01/16 05:38:40;;;;;;;;;13.20;13.00;;;;;1.72;60.31;98856.97;5065071;28;8862;-78
2024/01/16 05:41:09;;;;;;;;;48.00;42.20;;;;;1.85;59.94;98863.06;5050320;28;8862;-77
2024/01/16 05:43:38;;;;;;;;;34.20;32.60;;;;;1.93;59.97;98863.94;5046358;28;8967;-76
2024/01/16 05:46:07;;;;;;;;;26.00;25.00;;;;;1.92;59.87;98870.00;5044890;28;8863;-76
2024/01/16 05:48:38;;;;;;;;;17.60;15.40;;;;;1.82;60.51;98866.50;5030472;28;8905;-77
2024/01/16 05:51:07;;;;;;;;;29.40;24.60;;;;;1.88;59.58;98878.63;5046938;28;8873;-76
2024/01/16 05:53:36;;;;;;;;;24.60;22.60;;;;;2.00;60.20;98886.44;5012821;28;8866;-77
2024/01/16 05:56:07;;;;;;;;;12.00;10.40;;;;;2.07;60.10;98883.84;5040555;28;8866;-77
2024/01/16 05:58:38;;;;;;;;;20.40;17.20;;;;;1.75;60.06;98885.47;5042682;28;8969;-77
2024/01/16 06:01:08;;;;;;;;;16.80;16.00;;;;;1.84;60.14;98882.03;4981893;28;8876;-78
2024/01/16 06:03:38;;;;;;;;;31.40;30.80;;;;;1.79;60.44;98886.38;5040477;28;8884;-77
2024/01/16 06:06:08;;;;;;;;;18.00;15.60;;;;;1.75;60.01;98879.44;5041072;28;8987;-79
2024/01/16 06:08:37;;;;;;;;;18.20;17.20;;;;;1.75;60.22;98885.47;5046484;28;8861;-80
2024/01/16 06:11:06;;;;;;;;;17.40;17.40;;;;;1.74;60.27;98885.47;5027293;28;8833;-79
2024/01/16 06:13:35;;;;;;;;;16.60;15.00;;;;;1.84;59.75;98895.00;5012474;28;8865;-77
2024/01/16 06:16:06;;;;;;;;;16.20;15.60;;;;;1.78;60.51;98892.38;4996309;28;8853;-76
2024/01/16 06:18:35;;;;;;;;;20.40;19.80;;;;;1.79;60.44;98895.00;5032169;28;8849;-76
2024/01/16 06:21:06;;;;;;;;;21.00;19.40;;;;;1.85;60.32;98899.34;5035568;28;8862;-75
2024/01/16 06:23:35;;;;;;;;;24.40;20.80;;;;;2.01;59.69;98903.72;5046875;28;8831;-76
2024/01/16 06:26:05;;;;;;;;;21.40;19.80;;;;;1.74;60.50;98914.81;5071169;28;8968;-77
2024/01/16 06:28:34;;;;;;;;;25.00;22.00;;;;;1.82;60.04;98920.03;5068997;28;9017;-76
2024/01/16 06:31:03;;;;;;;;;20.00;17.80;;;;;1.88;59.95;98932.16;5070524;28;8852;-76
2024/01/16 06:33:32;;;;;;;;;18.40;17.00;;;;;1.91;59.38;98937.38;5069175;28;9674;-79
2024/01/16 06:36:02;;;;;;;;;22.00;20.00;;;;;1.83;60.17;98939.94;5016238;28;8911;-79
2024/01/16 06:38:34;;;;;;;;;19.40;17.00;;;;;1.70;60.43;98944.19;5063224;28;8843;-79
2024/01/16 06:41:03;;;;;;;;;25.20;19.20;;;;;1.62;60.56;98951.91;5071220;28;9003;-76
2024/01/16 06:43:32;;;;;;;;;25.20;21.00;;;;;1.79;60.42;98953.72;5053956;28;8953;-77
2024/01/16 06:46:02;;;;;;;;;21.80;20.20;;;;;1.77;60.66;98961.50;5072979;28;8948;-78
2024/01/16 06:48:31;;;;;;;;;22.40;20.80;;;;;1.84;60.16;98967.56;5084106;28;8848;-77
2024/01/16 06:51:01;;;;;;;;;19.20;19.20;;;;;1.89;60.18;98975.38;5059546;28;8870;-78
2024/01/16 06:53:30;;;;;;;;;25.80;21.00;;;;;2.03;59.92;98984.97;5032642;28;8858;-78
2024/01/16 06:56:00;;;;;;;;;24.60;19.40;;;;;2.11;59.53;98979.81;5017473;28;8853;-77
2024/01/16 06:58:29;;;;;;;;;23.80;23.40;;;;;2.28;59.68;98977.28;5051230;28;8955;-79
2024/01/16 07:01:00;;;;;;;;;20.80;16.40;;;;;2.16;59.57;98985.00;5078732;28;8925;-69
2024/01/16 07:03:29;;;;;;;;;19.80;19.20;;;;;2.14;59.60;98997.94;5035066;28;9111;-68
2024/01/16 07:05:58;;;;;;;;;20.00;18.40;;;;;2.14;59.68;99008.31;5033908;28;8829;-69
2024/01/16 07:08:27;;;;;;;;;22.40;22.40;;;;;2.26;59.53;99002.34;5049932;28;8853;-70
2024/01/16 07:10:56;;;;;;;;;27.20;25.40;;;;;2.38;59.57;99009.28;5049336;28;8854;-80
2024/01/16 07:13:27;;;;;;;;;24.60;21.80;;;;;2.40;58.63;99023.13;5050172;28;8846;-79
2024/01/16 07:15:56;;;;;;;;;27.20;21.80;;;;;2.41;58.75;99025.72;5052319;28;8862;-84
2024/01/16 07:18:25;;;;;;;;;14.00;13.40;;;;;2.30;58.80;99036.94;5076770;28;8832;-84
2024/01/16 07:20:55;;;;;;;;;22.20;20.20;;;;;2.45;58.64;99042.19;5075022;28;8879;-84
2024/01/16 07:23:25;;;;;;;;;29.80;25.60;;;;;2.38;58.47;99045.59;5055071;28;8871;-84
2024/01/16 07:25:54;;;;;;;;;19.20;17.00;;;;;2.52;58.66;99043.91;5071719;28;8846;-82
2024/01/16 07:28:23;;;;;;;;;19.80;19.40;;;;;2.64;58.00;99044.81;5067096;28;8856;-84
2024/01/16 07:30:55;;;;;;;;;17.00;14.20;;;;;2.70;58.58;99042.25;5051093;28;9706;-84
2024/01/16 07:33:24;;;;;;;;;22.00;20.80;;;;;2.81;57.84;99044.00;5056658;28;8896;-83
2024/01/16 07:35:53;;;;;;;;;26.40;22.60;;;;;2.81;57.84;99053.53;5079344;28;8876;-82
2024/01/16 07:38:23;;;;;;;;;25.00;24.40;;;;;2.86;57.06;99061.31;5051071;28;8990;-84
2024/01/16 07:40:56;;;;;;;;;24.00;20.80;;;;;2.32;58.35;99062.00;5056374;28;8842;-84
2024/01/16 07:43:25;;;;;;;;;28.60;24.20;;;;;2.26;57.90;99067.16;5064867;28;8938;-81
2024/01/16 07:45:56;;;;;;;;;25.00;24.00;;;;;2.53;58.53;99060.38;5070339;28;8864;-82
2024/01/16 07:48:25;;;;;;;;;27.20;25.40;;;;;2.63;58.10;99066.44;5087557;28;8848;-86
2024/01/16 07:50:55;;;;;;;;;25.40;24.80;;;;;2.70;57.97;99066.47;5053965;28;8850;-84
2024/01/16 07:53:27;;;;;;;;;25.40;24.00;;;;;2.77;58.08;99076.03;5045351;28;8900;-83
2024/01/16 07:55:58;;;;;;;;;27.60;23.60;;;;;2.88;57.52;99078.66;5053282;28;8870;-86
2024/01/16 07:58:26;;;;;;;;;33.40;31.20;;;;;2.79;56.28;99089.00;5050898;28;8997;-84
2024/01/16 08:00:57;;;;;;;;;39.60;33.80;;;;;1.69;59.86;99097.91;5039185;28;8903;-81
2024/01/16 08:03:26;;;;;;;;;14.60;11.40;;;;;2.29;58.84;99087.91;5061926;28;8846;-85
2024/01/16 08:05:55;;;;;;;;;34.00;31.80;;;;;2.58;58.45;99094.97;5002116;28;8886;-84
2024/01/16 08:08:25;;;;;;;;;29.20;26.80;;;;;2.70;58.42;99108.00;5092686;28;8868;-87
2024/01/16 08:10:56;;;;;;;;;44.20;37.40;;;;;1.56;59.70;99117.66;5080540;28;8877;-84
2024/01/16 08:13:25;;;;;;;;;35.40;32.40;;;;;1.63;59.93;99114.28;5060776;28;8828;-86
2024/01/16 08:15:55;;;;;;;;;34.40;27.20;;;;;1.38;60.63;99123.53;5057490;28;9107;-84
2024/01/16 08:18:26;;;;;;;;;31.00;27.60;;;;;1.93;60.25;99110.16;5073195;28;8961;-83
2024/01/16 08:20:56;;;;;;;;;31.60;29.60;;;;;2.31;59.69;99114.72;5076344;28;8843;-86
2024/01/16 08:23:25;;;;;;;;;23.80;21.40;;;;;2.60;59.04;99106.25;5091397;28;9005;-85
2024/01/16 08:25:54;;;;;;;;;29.20;27.60;;;;;2.80;57.73;99111.50;5071222;28;8999;-82
2024/01/16 08:28:24;;;;;;;;;27.80;25.80;;;;;2.94;56.78;99116.72;5073609;28;8860;-85
2024/01/16 08:30:54;;;;;;;;;31.40;29.80;;;;;2.94;56.29;99119.31;5031332;28;8970;-84
2024/01/16 08:33:23;;;;;;;;;26.40;24.00;;;;;3.08;56.02;99119.38;5015591;28;8857;-87
2024/01/16 08:36:07;;;;;;;;;23.80;22.20;;;;;2.69;54.69;99128.75;5032064;28;8961;-84
2024/01/16 08:38:36;;;;;;;;;18.20;18.20;;;;;2.37;56.72;99137.22;5016637;28;8832;-86
2024/01/16 08:41:06;;;;;;;;;33.20;25.80;;;;;2.87;56.21;99136.63;5052119;28;9687;-86
2024/01/16 08:43:35;;;;;;;;;23.60;22.40;;;;;3.09;55.58;99141.88;5039843;28;8978;-85
2024/01/16 08:46:05;;;;;;;;;22.80;21.00;;;;;3.32;55.71;99142.81;5044137;28;8957;-86
2024/01/16 08:48:36;;;;;;;;;28.80;26.60;;;;;3.58;54.90;99149.78;5014344;28;8940;-82
2024/01/16 08:51:13;;;;;;;;;31.60;28.20;;;;;3.72;54.72;99148.09;5015507;28;8863;-86
2024/01/16 08:53:43;;;;;;;;;29.20;27.80;;;;;3.86;54.97;99148.06;5031025;28;8868;-83
2024/01/16 08:56:12;;;;;;;;;34.80;32.20;;;;;4.01;54.25;99147.19;5014586;28;9683;-85
2024/01/16 08:58:41;;;;;;;;;35.60;30.60;;;;;4.16;53.26;99152.38;5031496;28;9053;-83
2024/01/16 09:01:11;;;;;;;;;29.20;28.20;;;;;4.30;53.03;99157.59;4983291;28;8883;-83
2024/01/16 09:03:40;;;;;;;;;42.80;39.80;;;;;4.42;52.97;99161.91;5002846;28;8871;-82
2024/01/16 09:06:12;;;;;;;;;32.00;32.00;;;;;4.56;52.62;99164.47;5029268;28;8851;-82
2024/01/16 09:08:41;;;;;;;;;38.40;32.20;;;;;4.71;52.65;99169.63;5026144;28;8880;-86
2024/01/16 09:11:11;;;;;;;;;31.80;30.00;;;;;4.74;51.30;99166.16;5052702;28;8850;-83
2024/01/16 09:13:40;;;;;;;;;29.60;29.20;;;;;4.66;51.42;99173.09;5028421;28;8882;-83
2024/01/16 09:16:09;;;;;;;;;29.00;28.20;;;;;4.62;50.21;99174.88;4995059;28;8874;-82
2024/01/16 09:18:39;;;;;;;;;29.80;29.80;;;;;4.78;51.10;99180.03;4963827;28;8988;-84
2024/01/16 09:21:08;;;;;;;;;26.60;25.00;;;;;4.63;50.03;99184.41;4977527;28;8899;-85
2024/01/16 09:23:39;;;;;;;;;28.40;27.20;;;;;4.73;49.64;99193.06;4976399;28;8914;-84
2024/01/16 09:26:10;;;;;;;;;28.40;27.20;;;;;3.89;50.57;99196.63;4999034;28;8892;-85
2024/01/16 09:28:40;;;;;;;;;27.40;25.20;;;;;3.90;50.28;99191.44;5014594;28;8880;-83
2024/01/16 09:31:09;;;;;;;;;25.40;21.80;;;;;4.15;48.56;99194.88;5030095;28;8898;-86
2024/01/16 09:33:39;;;;;;;;;31.80;31.00;;;;;4.00;47.48;99200.09;5014112;28;9018;-85
2024/01/16 09:36:09;;;;;;;;;20.00;19.40;;;;;4.23;47.82;99202.69;5035245;28;8962;-81
2024/01/16 09:38:39;;;;;;;;;23.60;21.80;;;;;4.42;47.17;99195.72;5004827;28;8865;-84
2024/01/16 09:41:08;;;;;;;;;29.20;24.60;;;;;3.65;47.52;99195.72;5019155;28;8880;-84
2024/01/16 09:43:38;;;;;;;;;25.80;24.40;;;;;3.96;48.46;99193.16;4974543;28;8899;-85
2024/01/16 09:46:10;;;;;;;;;37.80;36.60;;;;;4.11;48.74;99197.47;4990781;28;8919;-82
2024/01/16 09:48:41;;;;;;;;;26.40;24.00;;;;;3.87;47.63;99198.38;4980300;28;8859;-86
2024/01/16 09:51:31;;;;;;;;;27.40;24.00;;;;;3.91;48.99;99194.91;4941299;28;8876;-84
2024/01/16 09:54:06;;;;;;;;;23.60;22.20;;;;;3.36;44.51;99195.63;4977595;28;8855;-85
2024/01/16 09:56:40;;;;;;;;;24.00;24.00;;;;;2.72;46.21;99198.84;4976595;28;9000;-86
2024/01/16 09:59:10;;;;;;;;;15.80;11.00;;;;;3.30;46.59;99191.28;4977535;28;8955;-83
2024/01/16 10:01:41;;;;;;;;;10.80;9.00;;;;;3.66;45.49;99188.78;4942029;28;8921;-86
2024/01/16 10:04:10;;;;;;;;;12.40;11.20;;;;;3.20;42.71;99198.19;4962320;28;8905;-83
2024/01/16 10:06:40;;;;;;;;;15.60;15.60;;;;;2.94;42.90;99203.28;4987450;28;8895;-85
2024/01/16 10:09:12;;;;;;;;;9.80;9.40;;;;;3.39;44.15;99196.53;4974296;28;8960;-83
2024/01/16 10:11:41;;;;;;;;;8.20;8.20;;;;;3.12;42.49;99193.81;4922009;29;8948;-84
2024/01/16 10:14:11;;;;;;;;;10.60;10.60;;;;;3.59;43.09;99198.31;4929586;28;8856;-86
2024/01/16 10:16:56;;;;;;;;;9.60;9.20;;;;;2.30;41.62;99208.97;4978106;28;9021;-84
2024/01/16 10:19:26;;;;;;;;;13.20;10.80;;;;;2.45;42.08;99209.91;4982010;28;8854;-84
2024/01/16 10:22:13;;;;;;;;;12.60;11.60;;;;;2.08;42.48;99212.25;5048260;28;8855;-85
2024/01/16 10:24:45;;;;;;;;;5.40;5.40;;;;;2.80;43.67;99199.75;5035133;28;8968;-84
2024/01/16 10:27:18;;;;;;;;;7.80;7.80;;;;;3.02;40.64;99189.47;5000480;28;8891;-84
2024/01/16 10:29:56;;;;;;;;;4.20;2.80;;;;;2.74;39.02;99192.78;5034773;28;8953;-85
2024/01/16 10:32:30;;;;;;;;;14.00;13.20;;;;;2.59;40.70;99197.91;5033586;28;8944;-83
2024/01/16 10:35:04;;;;;;;;;14.20;9.80;;;;;2.11;40.83;99204.50;5034200;28;8980;-86
2024/01/16 10:37:44;;;;;;;;;6.40;6.00;;;;;2.67;42.93;99184.97;5035874;28;8883;-83
2024/01/16 10:40:18;;;;;;;;;14.40;12.80;;;;;2.84;40.46;99187.66;5068256;28;8949;-86
2024/01/16 10:43:00;;;;;;;;;9.40;7.40;;;;;3.33;40.98;99183.50;5018426;28;8839;-84
2024/01/16 10:45:29;;;;;;;;;9.00;8.60;;;;;2.34;40.33;99191.69;5034965;28;8875;-82
2024/01/16 10:48:03;;;;;;;;;7.80;6.40;;;;;2.61;39.13;99188.41;5037418;28;8874;-85
2024/01/16 10:50:35;;;;;;;;;6.00;6.00;;;;;2.33;38.85;99196.00;5067950;28;8905;-82
2024/01/16 10:53:05;;;;;;;;;6.40;6.00;;;;;2.59;39.00;99184.94;5033578;28;8871;-83
2024/01/16 10:55:44;;;;;;;;;4.60;4.60;;;;;3.03;38.92;99183.41;5066360;28;8856;-85
2024/01/16 10:58:14;;;;;;;;;2.40;2.40;;;;;3.28;38.95;99177.44;5070885;28;8860;-83
2024/01/16 11:00:46;;;;;;;;;3.80;3.80;;;;;3.64;38.84;99169.72;5050694;28;9018;-85
2024/01/16 11:03:22;;;;;;;;;3.00;3.00;;;;;3.86;35.47;99179.28;5009702;28;8988;-85
2024/01/16 11:05:53;;;;;;;;;5.60;3.80;;;;;3.92;33.29;99184.50;4997573;28;10277;-86
2024/01/16 11:08:27;;;;;;;;;2.60;2.60;;;;;3.16;34.24;99178.25;5030792;28;8854;-83
2024/01/16 11:10:59;;;;;;;;;3.00;3.00;;;;;3.20;35.49;99167.03;5019731;28;8850;-83
2024/01/16 11:13:29;;;;;;;;;2.60;2.00;;;;;3.47;36.06;99167.97;5040575;28;8852;-84
2024/01/16 11:16:00;;;;;;;;;5.60;3.80;;;;;3.97;35.95;99172.34;5041612;28;8950;-82
2024/01/16 11:18:32;;;;;;;;;7.00;7.00;;;;;4.42;37.72;99171.44;5052188;28;8860;-86
2024/01/16 11:21:03;;;;;;;;;3.00;3.00;;;;;4.73;37.45;99164.41;5017422;28;8851;-84
2024/01/16 11:23:38;;;;;;;;;2.00;1.00;;;;;5.11;37.85;99161.66;5075224;28;8963;-84
2024/01/16 11:26:28;;;;;;;;;5.40;5.40;;;;;5.49;34.34;99157.13;5057544;28;8935;-84
2024/01/16 11:28:59;;;;;;;;;6.20;5.20;;;;;5.60;35.21;99155.31;5063943;28;8852;-85
2024/01/16 11:31:30;;;;;;;;;6.00;3.40;;;;;5.49;33.33;99154.50;5062187;28;8918;-83
2024/01/16 11:34:00;;;;;;;;;4.20;4.20;;;;;5.57;33.69;99160.56;5040668;28;8946;-83
2024/01/16 11:36:54;;;;;;;;;4.60;4.60;;;;;5.83;33.56;99162.09;5019166;28;9568;-84
2024/01/16 11:39:25;;;;;;;;;5.20;5.20;;;;;5.79;33.67;99161.25;4976424;28;8864;-84
2024/01/16 11:41:57;;;;;;;;;5.20;5.20;;;;;5.89;33.91;99157.72;4988299;28;9024;-83
2024/01/16 11:44:42;;;;;;;;;3.80;3.80;;;;;6.09;33.38;99159.28;4968693;28;9090;-84
2024/01/16 11:47:17;;;;;;;;;7.00;6.00;;;;;6.06;33.30;99156.72;4977984;28;8908;-85
2024/01/16 11:49:48;;;;;;;;;6.80;6.00;;;;;5.93;32.94;99151.59;4975789;28;8964;-84
2024/01/16 11:52:40;;;;;;;;;3.00;3.00;;;;;6.11;31.47;99144.47;4958912;28;8893;-87